This demonstration page uses our WeatherBlox Daily Observations layout. Learn more.

41.55636, -103.73856

Hourly Observations for November 30, 2015

Temp ( °F °C ) Dew Point ( °F °C ) Humidity (%) Winds ( mph kmh ) Pressure ( in mb ) Visibility ( mi km ) Precip ( " mm )
12:53 am 00:53 Cloudy 23 -5 18 -7.8 81 81 NW 7 11 30.11 1020 10 16.0934 0 0
1:53 am 01:53 Cloudy 20 -6.7 16 -8.9 85 85 NW 6 9 30.1 1019 10 16.0934 0 0
2:53 am 02:53 Partly Cloudy 19 -7.2 15 -9.4 84 84 NW 8 13 30.1 1019 10 16.0934 0 0
3:53 am 03:53 Mostly Cloudy 18 -7.8 14 -10 84 84 WNW 7 11 30.1 1019 10 16.0934 0 0
4:53 am 04:53 Cloudy 18 -7.8 14 -10 84 84 WNW 8 13 30.11 1020 10 16.0934 0 0
5:53 am 05:53 Cloudy 18 -7.8 14 -10 84 84 WNW 9 15 30.11 1020 10 16.0934 0 0
6:53 am 06:53 Mostly Cloudy 18 -7.8 14 -10 84 84 WNW 9 15 30.1 1019 10 16.0934 0 0
7:53 am 07:53 Cloudy 19 -7.2 14 -10 81 81 WNW 12 19 30.1 1019 10 16.0934 0 0
8:53 am 08:53 Mostly Cloudy 20 -6.7 14 -10 78 78 WNW 12 19 30.09 1019 10 16.0934 0 0
9:53 am 09:53 Partly Cloudy 22 -5.6 14 -10 71 71 WNW 10 17 30.09 1019 10 16.0934 0 0
10:53 am 10:53 Mostly Sunny 25 -3.9 14 -10 63 63 WNW 15 24 30.07 1018 10 16.0934 0 0
11:53 am 11:53 Mostly Sunny 28 -2.2 14 -10 56 56 WNW 14 22 30.04 1017 10 16.0934 0 0
12:53 pm 12:53 Sunny 30 -1.1 15 -9.4 54 54 WNW 17 28 30 1016 10 16.0934 0 0
1:53 pm 13:53 Sunny 32 0 16 -8.9 52 52 WNW 16 26 29.99 1016 10 16.0934 0 0
2:53 pm 14:53 Mostly Sunny 31 -0.6 15 -9.4 52 52 NW 18 30 29.98 1015 10 16.0934 0 0
3:53 pm 15:53 Sunny 30 -1.1 15 -9.4 54 54 WNW 10 17 29.98 1015 10 16.0934 0 0
4:53 pm 16:53 Clear 29 -1.7 15 -9.4 56 56 WNW 13 20 29.99 1016 10 16.0934 0 0
5:53 pm 17:53 Cloudy 27 -2.8 16 -8.9 63 63 WNW 9 15 30 1016 10 16.0934 0 0
6:53 pm 18:53 Cloudy 25 -3.9 17 -8.3 72 72 WNW 10 17 29.99 1016 10 16.0934 0 0
7:53 pm 19:53 Mostly Clear 25 -3.9 15 -9.4 66 66 WNW 12 19 29.97 1015 10 16.0934 0 0
8:53 pm 20:53 Cloudy 26 -3.3 15 -9.4 63 63 WNW 13 20 29.95 1014 10 16.0934 0 0
9:53 pm 21:53 Mostly Cloudy 27 -2.8 15 -9.4 61 61 WNW 15 24 29.93 1014 10 16.0934 0 0
10:53 pm 22:53 Cloudy 28 -2.2 14 -10 56 56 WNW 20 31 29.91 1013 10 16.0934 0 0
11:53 pm 23:53 Cloudy 28 -2.2 14 -10 56 56 WNW 18 30 29.88 1012 10 16.0934 0 0

Powered by AerisWeather